sensor_id;sensor_type;location;lat;lon;timestamp;pressure;altitude;pressure_sealevel;temperature;humidity
68889;BME280;55930;47.412;8.790;2022-08-18T00:04:39;94448.16;;;15.61;100.00
68889;BME280;55930;47.412;8.790;2022-08-18T00:07:13;94439.38;;;15.66;100.00
68889;BME280;55930;47.412;8.790;2022-08-18T00:09:40;94425.75;;;15.70;100.00
68889;BME280;55930;47.412;8.790;2022-08-18T00:12:14;94413.13;;;15.65;100.00
68889;BME280;55930;47.412;8.790;2022-08-18T00:14:44;94408.50;;;15.65;100.00
68889;BME280;55930;47.412;8.790;2022-08-18T00:17:10;94416.84;;;15.45;100.00
68889;BME280;55930;47.412;8.790;2022-08-18T00:19:36;94415.47;;;15.27;100.00
68889;BME280;55930;47.412;8.790;2022-08-18T00:22:01;94416.94;;;15.17;100.00
68889;BME280;55930;47.412;8.790;2022-08-18T00:24:26;94406.72;;;15.27;100.00
68889;BME280;55930;47.412;8.790;2022-08-18T00:26:52;94391.81;;;15.43;100.00
68889;BME280;55930;47.412;8.790;2022-08-18T00:29:19;94390.88;;;15.35;100.00
68889;BME280;55930;47.412;8.790;2022-08-18T00:31:44;94392.34;;;15.36;100.00
68889;BME280;55930;47.412;8.790;2022-08-18T00:34:09;94387.97;;;15.32;100.00
68889;BME280;55930;47.412;8.790;2022-08-18T00:36:37;94388.25;;;15.29;100.00
68889;BME280;55930;47.412;8.790;2022-08-18T00:39:03;94389.25;;;15.20;100.00
68889;BME280;55930;47.412;8.790;2022-08-18T00:41:28;94387.78;;;15.19;100.00
68889;BME280;55930;47.412;8.790;2022-08-18T00:43:57;94382.13;;;15.34;100.00
68889;BME280;55930;47.412;8.790;2022-08-18T00:46:28;94382.97;;;15.12;100.00
68889;BME280;55930;47.412;8.790;2022-08-18T00:48:55;94384.41;;;15.13;100.00
68889;BME280;55930;47.412;8.790;2022-08-18T00:54:25;94375.72;;;15.02;100.00
68889;BME280;55930;47.412;8.790;2022-08-18T00:56:55;94373.06;;;14.96;100.00
68889;BME280;55930;47.412;8.790;2022-08-18T00:59:42;94367.75;;;14.85;100.00
68889;BME280;55930;47.412;8.790;2022-08-18T01:02:15;94371.88;;;14.86;100.00
68889;BME280;55930;47.412;8.790;2022-08-18T01:04:52;94379.91;;;14.80;100.00
68889;BME280;55930;47.412;8.790;2022-08-18T01:07:24;94367.78;;;14.79;100.00
68889;BME280;55930;47.412;8.790;2022-08-18T01:09:55;94365.63;;;14.67;100.00
68889;BME280;55930;47.412;8.790;2022-08-18T01:12:24;94370.97;;;14.67;100.00
68889;BME280;55930;47.412;8.790;2022-08-18T01:14:50;94377.97;;;14.81;100.00
68889;BME280;55930;47.412;8.790;2022-08-18T01:17:15;94380.63;;;14.86;100.00
68889;BME280;55930;47.412;8.790;2022-08-18T01:20:00;94382.56;;;14.91;100.00
68889;BME280;55930;47.412;8.790;2022-08-18T01:25:13;94367.41;;;15.11;100.00
68889;BME280;55930;47.412;8.790;2022-08-18T01:27:57;94351.69;;;14.96;100.00
68889;BME280;55930;47.412;8.790;2022-08-18T01:30:28;94357.03;;;14.96;100.00
68889;BME280;55930;47.412;8.790;2022-08-18T01:32:55;94355.09;;;14.97;100.00
68889;BME280;55930;47.412;8.790;2022-08-18T01:35:22;94358.00;;;14.93;100.00
68889;BME280;55930;47.412;8.790;2022-08-18T01:37:50;94353.41;;;14.99;100.00
68889;BME280;55930;47.412;8.790;2022-08-18T01:40:17;94354.81;;;15.06;100.00
68889;BME280;55930;47.412;8.790;2022-08-18T01:42:43;94348.22;;;15.12;100.00
68889;BME280;55930;47.412;8.790;2022-08-18T01:45:15;94337.50;;;15.23;100.00
68889;BME280;55930;47.412;8.790;2022-08-18T01:47:41;94343.78;;;15.26;100.00
68889;BME280;55930;47.412;8.790;2022-08-18T01:50:07;94341.59;;;15.30;100.00
68889;BME280;55930;47.412;8.790;2022-08-18T01:52:34;94337.50;;;15.23;100.00
68889;BME280;55930;47.412;8.790;2022-08-18T01:55:00;94337.50;;;15.23;100.00
68889;BME280;55930;47.412;8.790;2022-08-18T01:57:26;94327.00;;;15.31;100.00
68889;BME280;55930;47.412;8.790;2022-08-18T01:59:54;94321.91;;;15.27;100.00
68889;BME280;55930;47.412;8.790;2022-08-18T02:02:25;94312.94;;;15.25;100.00
68889;BME280;55930;47.412;8.790;2022-08-18T02:04:55;94312.44;;;15.26;100.00
68889;BME280;55930;47.412;8.790;2022-08-18T02:07:23;94301.75;;;15.26;100.00
68889;BME280;55930;47.412;8.790;2022-08-18T02:09:49;94309.03;;;15.26;100.00
68889;BME280;55930;47.412;8.790;2022-08-18T02:12:14;94295.22;;;15.22;100.00
68889;BME280;55930;47.412;8.790;2022-08-18T02:14:40;94302.53;;;15.21;100.00
68889;BME280;55930;47.412;8.790;2022-08-18T02:17:08;94304.84;;;15.36;100.00
68889;BME280;55930;47.412;8.790;2022-08-18T02:19:36;94303.50;;;15.24;100.00
68889;BME280;55930;47.412;8.790;2022-08-18T02:22:04;94307.09;;;15.26;100.00
68889;BME280;55930;47.412;8.790;2022-08-18T02:24:30;94304.91;;;15.25;100.00
68889;BME280;55930;47.412;8.790;2022-08-18T02:26:55;94303.69;;;15.26;100.00
68889;BME280;55930;47.412;8.790;2022-08-18T02:29:23;94289.59;;;15.31;100.00
68889;BME280;55930;47.412;8.790;2022-08-18T02:31:51;94290.53;;;15.33;100.00
68889;BME280;55930;47.412;8.790;2022-08-18T02:34:17;94297.91;;;15.22;100.00
68889;BME280;55930;47.412;8.790;2022-08-18T02:36:42;94294.53;;;15.16;100.00
68889;BME280;55930;47.412;8.790;2022-08-18T02:39:08;94298.88;;;15.19;100.00
68889;BME280;55930;47.412;8.790;2022-08-18T02:41:35;94294.25;;;15.19;100.00
68889;BME280;55930;47.412;8.790;2022-08-18T02:44:01;94281.41;;;15.18;100.00
68889;BME280;55930;47.412;8.790;2022-08-18T02:46:27;94268.56;;;15.11;100.00
68889;BME280;55930;47.412;8.790;2022-08-18T02:48:55;94269.31;;;15.06;100.00
68889;BME280;55930;47.412;8.790;2022-08-18T02:51:23;94276.63;;;15.05;100.00
68889;BME280;55930;47.412;8.790;2022-08-18T02:53:48;94269.38;;;15.00;100.00
68889;BME280;55930;47.412;8.790;2022-08-18T02:56:20;94270.38;;;14.91;100.00
68889;BME280;55930;47.412;8.790;2022-08-18T02:58:53;94264.56;;;14.87;100.00
68889;BME280;55930;47.412;8.790;2022-08-18T03:01:21;94270.66;;;14.77;100.00
68889;BME280;55930;47.412;8.790;2022-08-18T03:03:48;94287.41;;;14.77;100.00
68889;BME280;55930;47.412;8.790;2022-08-18T03:06:14;94289.59;;;14.79;100.00
68889;BME280;55930;47.412;8.790;2022-08-18T03:08:40;94296.88;;;14.84;100.00
68889;BME280;55930;47.412;8.790;2022-08-18T03:11:06;94282.31;;;14.79;100.00
68889;BME280;55930;47.412;8.790;2022-08-18T03:13:31;94281.13;;;14.75;100.00
68889;BME280;55930;47.412;8.790;2022-08-18T03:15:57;94285.75;;;14.74;100.00
68889;BME280;55930;47.412;8.790;2022-08-18T03:18:22;94284.34;;;14.57;100.00
68889;BME280;55930;47.412;8.790;2022-08-18T03:20:50;94277.06;;;14.57;100.00
68889;BME280;55930;47.412;8.790;2022-08-18T03:23:16;94274.84;;;14.61;100.00
68889;BME280;55930;47.412;8.790;2022-08-18T03:25:47;94281.38;;;14.71;100.00
68889;BME280;55930;47.412;8.790;2022-08-18T03:28:13;94270.28;;;14.56;100.00
68889;BME280;55930;47.412;8.790;2022-08-18T03:30:39;94264.19;;;14.61;100.00
68889;BME280;55930;47.412;8.790;2022-08-18T03:33:05;94265.66;;;14.57;100.00
68889;BME280;55930;47.412;8.790;2022-08-18T03:35:30;94255.19;;;14.64;100.00
68889;BME280;55930;47.412;8.790;2022-08-18T03:37:59;94271.50;;;14.55;100.00
68889;BME280;55930;47.412;8.790;2022-08-18T03:40:25;94257.91;;;14.59;100.00
68889;BME280;55930;47.412;8.790;2022-08-18T03:42:50;94259.50;;;14.78;100.00
68889;BME280;55930;47.412;8.790;2022-08-18T03:45:15;94260.94;;;14.79;100.00
68889;BME280;55930;47.412;8.790;2022-08-18T03:47:41;94269.25;;;14.76;100.00
68889;BME280;55930;47.412;8.790;2022-08-18T03:50:07;94272.44;;;14.63;100.00
68889;BME280;55930;47.412;8.790;2022-08-18T03:52:32;94279.19;;;14.75;100.00
68889;BME280;55930;47.412;8.790;2022-08-18T03:54:58;94283.34;;;14.65;100.00
68889;BME280;55930;47.412;8.790;2022-08-18T03:57:24;94295.00;;;14.62;100.00
68889;BME280;55930;47.412;8.790;2022-08-18T03:59:49;94298.66;;;14.59;100.00
68889;BME280;55930;47.412;8.790;2022-08-18T04:02:15;94312.47;;;14.63;100.00
68889;BME280;55930;47.412;8.790;2022-08-18T04:04:44;94326.78;;;14.71;100.00
68889;BME280;55930;47.412;8.790;2022-08-18T04:07:13;94336.97;;;14.73;100.00
68889;BME280;55930;47.412;8.790;2022-08-18T04:09:41;94334.06;;;14.71;100.00
68889;BME280;55930;47.412;8.790;2022-08-18T04:12:09;94334.06;;;14.71;100.00
68889;BME280;55930;47.412;8.790;2022-08-18T04:14:39;94337.66;;;14.79;100.00
68889;BME280;55930;47.412;8.790;2022-08-18T04:17:05;94331.09;;;14.85;100.00
68889;BME280;55930;47.412;8.790;2022-08-18T04:19:31;94326.28;;;14.73;100.00
68889;BME280;55930;47.412;8.790;2022-08-18T04:21:59;94313.19;;;14.69;100.00
68889;BME280;55930;47.412;8.790;2022-08-18T04:24:26;94305.38;;;14.82;100.00
68889;BME280;55930;47.412;8.790;2022-08-18T04:26:53;94297.84;;;14.81;100.00
68889;BME280;55930;47.412;8.790;2022-08-18T04:29:19;94287.34;;;14.94;100.00
68889;BME280;55930;47.412;8.790;2022-08-18T04:31:46;94268.84;;;15.02;100.00
68889;BME280;55930;47.412;8.790;2022-08-18T04:34:12;94257.22;;;14.93;100.00
68889;BME280;55930;47.412;8.790;2022-08-18T04:36:38;94236.59;;;14.94;100.00
68889;BME280;55930;47.412;8.790;2022-08-18T04:39:06;94214.69;;;15.01;100.00
68889;BME280;55930;47.412;8.790;2022-08-18T04:41:32;94180.75;;;14.96;100.00
68889;BME280;55930;47.412;8.790;2022-08-18T04:44:00;94129.53;;;14.92;100.00
68889;BME280;55930;47.412;8.790;2022-08-18T04:46:27;94070.13;;;14.80;100.00
68889;BME280;55930;47.412;8.790;2022-08-18T04:48:54;94053.66;;;14.76;100.00
68889;BME280;55930;47.412;8.790;2022-08-18T04:51:27;94069.28;;;14.97;100.00
68889;BME280;55930;47.412;8.790;2022-08-18T04:53:53;94096.00;;;14.97;100.00
68889;BME280;55930;47.412;8.790;2022-08-18T04:56:26;94153.50;;;15.03;100.00
68889;BME280;55930;47.412;8.790;2022-08-18T05:01:22;94160.53;;;15.01;100.00
68889;BME280;55930;47.412;8.790;2022-08-18T05:03:49;94177.28;;;15.07;100.00
68889;BME280;55930;47.412;8.790;2022-08-18T05:06:17;94200.97;;;15.21;100.00
68889;BME280;55930;47.412;8.790;2022-08-18T05:08:43;94225.50;;;15.20;100.00
68889;BME280;55930;47.412;8.790;2022-08-18T05:11:09;94258.44;;;14.98;100.00
68889;BME280;55930;47.412;8.790;2022-08-18T05:13:38;94286.34;;;15.03;100.00
68889;BME280;55930;47.412;8.790;2022-08-18T05:16:03;94290.22;;;15.02;100.00
68889;BME280;55930;47.412;8.790;2022-08-18T05:18:30;94272.94;;;15.14;100.00
68889;BME280;55930;47.412;8.790;2022-08-18T05:20:56;94244.84;;;15.37;100.00
68889;BME280;55930;47.412;8.790;2022-08-18T05:23:22;94247.22;;;15.46;100.00
68889;BME280;55930;47.412;8.790;2022-08-18T05:25:48;94254.16;;;15.60;100.00
68889;BME280;55930;47.412;8.790;2022-08-18T05:28:16;94249.91;;;15.76;100.00
68889;BME280;55930;47.412;8.790;2022-08-18T05:30:42;94257.53;;;15.66;100.00
68889;BME280;55930;47.412;8.790;2022-08-18T05:33:09;94242.81;;;16.08;100.00
68889;BME280;55930;47.412;8.790;2022-08-18T05:35:40;94252.31;;;15.80;100.00
68889;BME280;55930;47.412;8.790;2022-08-18T05:40:58;94312.75;;;15.94;100.00
68889;BME280;55930;47.412;8.790;2022-08-18T05:43:25;94312.03;;;15.93;100.00
68889;BME280;55930;47.412;8.790;2022-08-18T05:45:50;94317.31;;;15.99;100.00
68889;BME280;55930;47.412;8.790;2022-08-18T05:48:18;94313.84;;;16.34;100.00
68889;BME280;55930;47.412;8.790;2022-08-18T05:50:46;94300.41;;;16.39;99.94
68889;BME280;55930;47.412;8.790;2022-08-18T05:53:14;94305.50;;;16.43;100.00
68889;BME280;55930;47.412;8.790;2022-08-18T05:56:11;94305.69;;;16.94;97.52
68889;BME280;55930;47.412;8.790;2022-08-18T05:58:56;94319.94;;;16.83;95.82
68889;BME280;55930;47.412;8.790;2022-08-18T06:01:37;94318.81;;;17.16;95.33
68889;BME280;55930;47.412;8.790;2022-08-18T06:04:15;94332.13;;;17.40;93.74
68889;BME280;55930;47.412;8.790;2022-08-18T06:06:44;94332.41;;;17.74;90.85
68889;BME280;55930;47.412;8.790;2022-08-18T06:11:43;94332.28;;;17.67;88.53
68889;BME280;55930;47.412;8.790;2022-08-18T06:14:09;94324.44;;;17.87;88.82
68889;BME280;55930;47.412;8.790;2022-08-18T06:24:52;94305.44;;;18.70;86.52
68889;BME280;55930;47.412;8.790;2022-08-18T06:27:36;94315.97;;;18.68;88.14
68889;BME280;55930;47.412;8.790;2022-08-18T06:30:33;94321.78;;;18.72;87.90
68889;BME280;55930;47.412;8.790;2022-08-18T06:35:47;94329.63;;;18.70;86.22
68889;BME280;55930;47.412;8.790;2022-08-18T06:41:12;94339.75;;;18.51;87.83
68889;BME280;55930;47.412;8.790;2022-08-18T06:43:55;94347.91;;;19.71;83.52
68889;BME280;55930;47.412;8.790;2022-08-18T06:46:34;94347.53;;;20.30;81.18
68889;BME280;55930;47.412;8.790;2022-08-18T06:49:04;94338.84;;;20.44;77.96
68889;BME280;55930;47.412;8.790;2022-08-18T06:51:42;94348.72;;;20.70;77.20
68889;BME280;55930;47.412;8.790;2022-08-18T06:56:50;94346.28;;;21.52;74.01
68889;BME280;55930;47.412;8.790;2022-08-18T06:59:52;94342.25;;;21.01;73.85
68889;BME280;55930;47.412;8.790;2022-08-18T07:07:30;94358.06;;;21.26;74.84
68889;BME280;55930;47.412;8.790;2022-08-18T07:09:58;94353.06;;;20.24;76.43
68889;BME280;55930;47.412;8.790;2022-08-18T07:12:28;94349.19;;;19.44;80.72
68889;BME280;55930;47.412;8.790;2022-08-18T07:14:57;94342.13;;;19.20;84.67
68889;BME280;55930;47.412;8.790;2022-08-18T07:17:31;94343.50;;;19.47;82.66
68889;BME280;55930;47.412;8.790;2022-08-18T07:22:29;94342.47;;;20.47;77.63
68889;BME280;55930;47.412;8.790;2022-08-18T07:24:56;94370.16;;;20.47;77.04
68889;BME280;55930;47.412;8.790;2022-08-18T07:27:46;94369.97;;;19.91;80.07
68889;BME280;55930;47.412;8.790;2022-08-18T07:32:47;94369.09;;;20.09;76.25
68889;BME280;55930;47.412;8.790;2022-08-18T07:35:18;94370.31;;;19.87;76.19
68889;BME280;55930;47.412;8.790;2022-08-18T07:37:53;94350.88;;;20.43;75.50
68889;BME280;55930;47.412;8.790;2022-08-18T07:43:04;94350.06;;;20.84;73.61
68889;BME280;55930;47.412;8.790;2022-08-18T07:45:41;94364.97;;;21.06;70.60
68889;BME280;55930;47.412;8.790;2022-08-18T07:55:40;94364.25;;;22.84;64.99
68889;BME280;55930;47.412;8.790;2022-08-18T07:58:25;94361.16;;;22.95;64.38
68889;BME280;55930;47.412;8.790;2022-08-18T08:01:10;94358.78;;;21.77;69.10
68889;BME280;55930;47.412;8.790;2022-08-18T08:03:57;94344.63;;;21.41;70.30
68889;BME280;55930;47.412;8.790;2022-08-18T08:06:45;94326.34;;;22.99;65.56
68889;BME280;55930;47.412;8.790;2022-08-18T08:09:24;94322.41;;;20.91;72.29
68889;BME280;55930;47.412;8.790;2022-08-18T08:11:59;94330.97;;;20.25;73.89
68889;BME280;55930;47.412;8.790;2022-08-18T08:17:03;94327.69;;;20.40;73.82
68889;BME280;55930;47.412;8.790;2022-08-18T08:19:43;94318.25;;;21.70;69.12
68889;BME280;55930;47.412;8.790;2022-08-18T08:22:23;94316.88;;;23.31;62.79
68889;BME280;55930;47.412;8.790;2022-08-18T08:28:05;94304.56;;;25.03;55.28
68889;BME280;55930;47.412;8.790;2022-08-18T08:30:40;94301.13;;;25.03;54.54
68889;BME280;55930;47.412;8.790;2022-08-18T08:35:55;94308.00;;;25.92;53.66
68889;BME280;55930;47.412;8.790;2022-08-18T08:38:45;94327.03;;;25.92;52.46
68889;BME280;55930;47.412;8.790;2022-08-18T08:41:21;94343.38;;;27.32;49.64
68889;BME280;55930;47.412;8.790;2022-08-18T08:44:05;94344.56;;;25.81;54.37
68889;BME280;55930;47.412;8.790;2022-08-18T08:46:41;94352.50;;;24.24;59.51
68889;BME280;55930;47.412;8.790;2022-08-18T08:55:08;94346.31;;;24.91;55.55
68889;BME280;55930;47.412;8.790;2022-08-18T08:57:41;94347.81;;;24.84;54.47
68889;BME280;55930;47.412;8.790;2022-08-18T09:00:11;94336.38;;;23.69;57.94
68889;BME280;55930;47.412;8.790;2022-08-18T09:03:01;94322.09;;;24.68;55.76
68889;BME280;55930;47.412;8.790;2022-08-18T09:05:40;94328.66;;;24.15;56.71
68889;BME280;55930;47.412;8.790;2022-08-18T09:18:40;94331.97;;;24.06;55.49
68889;BME280;55930;47.412;8.790;2022-08-18T09:21:27;94334.75;;;23.66;59.40
68889;BME280;55930;47.412;8.790;2022-08-18T09:24:18;94329.69;;;24.69;55.61
68889;BME280;55930;47.412;8.790;2022-08-18T09:26:52;94320.72;;;24.59;53.92
68889;BME280;55930;47.412;8.790;2022-08-18T09:29:26;94325.09;;;25.58;51.38
68889;BME280;55930;47.412;8.790;2022-08-18T09:40:46;94277.22;;;25.63;49.97
68889;BME280;55930;47.412;8.790;2022-08-18T09:43:36;94280.78;;;24.94;51.28
68889;BME280;55930;47.412;8.790;2022-08-18T09:46:04;94287.16;;;25.06;53.24
68889;BME280;55930;47.412;8.790;2022-08-18T09:48:37;94286.00;;;24.16;52.03
68889;BME280;55930;47.412;8.790;2022-08-18T09:56:17;94286.53;;;24.22;53.75
68889;BME280;55930;47.412;8.790;2022-08-18T09:59:01;94286.91;;;23.93;54.62
68889;BME280;55930;47.412;8.790;2022-08-18T10:06:38;94261.19;;;23.45;54.11
68889;BME280;55930;47.412;8.790;2022-08-18T10:12:41;94241.34;;;24.24;53.73
68889;BME280;55930;47.412;8.790;2022-08-18T10:15:32;94239.13;;;24.48;49.51
68889;BME280;55930;47.412;8.790;2022-08-18T10:18:11;94231.91;;;24.42;50.73
68889;BME280;55930;47.412;8.790;2022-08-18T10:23:45;94229.94;;;24.43;49.83
68889;BME280;55930;47.412;8.790;2022-08-18T10:29:55;94246.25;;;24.18;52.84
68889;BME280;55930;47.412;8.790;2022-08-18T10:34:41;94227.94;;;25.49;51.52
68889;BME280;55930;47.412;8.790;2022-08-18T10:37:17;94231.66;;;24.83;50.26
68889;BME280;55930;47.412;8.790;2022-08-18T10:39:49;94235.78;;;24.57;51.20
68889;BME280;55930;47.412;8.790;2022-08-18T10:42:23;94227.22;;;24.43;51.90
68889;BME280;55930;47.412;8.790;2022-08-18T10:44:57;94228.91;;;24.38;52.17
68889;BME280;55930;47.412;8.790;2022-08-18T10:47:30;94233.53;;;23.54;54.05
68889;BME280;55930;47.412;8.790;2022-08-18T10:49:56;94221.84;;;23.44;54.66
68889;BME280;55930;47.412;8.790;2022-08-18T11:01:23;94194.19;;;22.88;60.50
68889;BME280;55930;47.412;8.790;2022-08-18T11:04:26;94193.44;;;22.40;60.82
68889;BME280;55930;47.412;8.790;2022-08-18T11:07:00;94193.63;;;22.19;62.21
68889;BME280;55930;47.412;8.790;2022-08-18T11:09:28;94200.50;;;22.05;61.74
68889;BME280;55930;47.412;8.790;2022-08-18T11:11:57;94210.44;;;22.10;62.55
68889;BME280;55930;47.412;8.790;2022-08-18T11:14:55;94207.69;;;21.57;64.18
68889;BME280;55930;47.412;8.790;2022-08-18T11:19:49;94189.38;;;22.01;61.87
68889;BME280;55930;47.412;8.790;2022-08-18T11:22:32;94195.09;;;21.74;63.29
68889;BME280;55930;47.412;8.790;2022-08-18T11:25:00;94198.00;;;21.84;64.41
68889;BME280;55930;47.412;8.790;2022-08-18T11:27:28;94194.38;;;21.82;63.38
68889;BME280;55930;47.412;8.790;2022-08-18T11:29:59;94191.69;;;21.59;65.26
68889;BME280;55930;47.412;8.790;2022-08-18T11:32:37;94188.25;;;21.58;65.02
68889;BME280;55930;47.412;8.790;2022-08-18T11:41:26;94206.44;;;21.50;66.63
68889;BME280;55930;47.412;8.790;2022-08-18T11:43:26;94212.38;;;21.56;63.58
68889;BME280;55930;47.412;8.790;2022-08-18T11:45:58;94207.88;;;21.74;64.77
68889;BME280;55930;47.412;8.790;2022-08-18T11:58:47;94204.28;;;21.56;64.57
68889;BME280;55930;47.412;8.790;2022-08-18T12:01:54;94197.28;;;21.84;65.57
68889;BME280;55930;47.412;8.790;2022-08-18T12:04:38;94194.56;;;21.84;64.95
68889;BME280;55930;47.412;8.790;2022-08-18T12:07:09;94197.94;;;22.30;63.79
68889;BME280;55930;47.412;8.790;2022-08-18T12:09:42;94203.00;;;21.50;65.17
68889;BME280;55930;47.412;8.790;2022-08-18T12:12:26;94208.97;;;21.63;64.88
68889;BME280;55930;47.412;8.790;2022-08-18T12:17:30;94198.00;;;21.61;63.78
68889;BME280;55930;47.412;8.790;2022-08-18T12:19:56;94196.75;;;21.77;62.24
68889;BME280;55930;47.412;8.790;2022-08-18T12:22:29;94188.81;;;21.64;63.11
68889;BME280;55930;47.412;8.790;2022-08-18T12:24:56;94182.69;;;21.64;62.88
68889;BME280;55930;47.412;8.790;2022-08-18T12:27:28;94171.53;;;21.98;62.73
68889;BME280;55930;47.412;8.790;2022-08-18T12:29:57;94174.22;;;22.05;62.28
68889;BME280;55930;47.412;8.790;2022-08-18T12:32:24;94167.91;;;21.95;62.33
68889;BME280;55930;47.412;8.790;2022-08-18T12:34:50;94179.28;;;22.01;62.31
68889;BME280;55930;47.412;8.790;2022-08-18T12:37:22;94173.13;;;21.40;64.40
68889;BME280;55930;47.412;8.790;2022-08-18T12:39:49;94175.88;;;21.63;62.64
68889;BME280;55930;47.412;8.790;2022-08-18T12:42:15;94179.63;;;21.45;63.88
68889;BME280;55930;47.412;8.790;2022-08-18T12:44:43;94180.50;;;21.39;64.25
68889;BME280;55930;47.412;8.790;2022-08-18T12:47:14;94180.69;;;21.57;65.08
68889;BME280;55930;47.412;8.790;2022-08-18T12:49:41;94181.25;;;21.78;64.79
68889;BME280;55930;47.412;8.790;2022-08-18T12:52:07;94163.94;;;21.81;64.13
68889;BME280;55930;47.412;8.790;2022-08-18T12:54:33;94170.09;;;21.66;66.07
68889;BME280;55930;47.412;8.790;2022-08-18T12:57:01;94161.25;;;21.73;63.87
68889;BME280;55930;47.412;8.790;2022-08-18T12:59:27;94166.47;;;22.17;62.51
68889;BME280;55930;47.412;8.790;2022-08-18T13:01:52;94159.81;;;22.03;63.13
68889;BME280;55930;47.412;8.790;2022-08-18T13:04:20;94163.78;;;21.71;63.56
68889;BME280;55930;47.412;8.790;2022-08-18T13:06:50;94167.19;;;21.64;64.95
68889;BME280;55930;47.412;8.790;2022-08-18T13:09:20;94157.84;;;21.58;63.25
68889;BME280;55930;47.412;8.790;2022-08-18T13:11:46;94162.16;;;21.84;63.77
68889;BME280;55930;47.412;8.790;2022-08-18T13:14:14;94157.84;;;21.65;63.99
68889;BME280;55930;47.412;8.790;2022-08-18T13:16:44;94163.94;;;21.96;64.45
68889;BME280;55930;47.412;8.790;2022-08-18T13:19:12;94158.22;;;21.54;63.50
68889;BME280;55930;47.412;8.790;2022-08-18T13:21:39;94170.47;;;21.63;63.04
68889;BME280;55930;47.412;8.790;2022-08-18T13:24:08;94163.09;;;21.71;64.35
68889;BME280;55930;47.412;8.790;2022-08-18T13:26:37;94176.00;;;21.88;64.01
68889;BME280;55930;47.412;8.790;2022-08-18T13:29:03;94178.91;;;21.44;64.20
68889;BME280;55930;47.412;8.790;2022-08-18T13:31:31;94178.16;;;21.21;67.43
68889;BME280;55930;47.412;8.790;2022-08-18T13:33:58;94179.19;;;21.10;67.16
68889;BME280;55930;47.412;8.790;2022-08-18T13:36:26;94178.63;;;21.04;68.31
68889;BME280;55930;47.412;8.790;2022-08-18T13:38:52;94182.13;;;21.43;67.62
68889;BME280;55930;47.412;8.790;2022-08-18T13:41:20;94177.38;;;20.97;67.86
68889;BME280;55930;47.412;8.790;2022-08-18T13:43:47;94173.19;;;20.81;68.71
68889;BME280;55930;47.412;8.790;2022-08-18T13:46:15;94171.63;;;21.09;67.98
68889;BME280;55930;47.412;8.790;2022-08-18T13:48:42;94174.75;;;21.28;66.64
68889;BME280;55930;47.412;8.790;2022-08-18T13:51:08;94183.56;;;21.36;66.64
68889;BME280;55930;47.412;8.790;2022-08-18T13:53:37;94180.81;;;21.06;67.36
68889;BME280;55930;47.412;8.790;2022-08-18T13:56:05;94183.66;;;21.08;67.11
68889;BME280;55930;47.412;8.790;2022-08-18T13:58:31;94181.50;;;20.98;69.06
68889;BME280;55930;47.412;8.790;2022-08-18T14:01:00;94186.13;;;20.75;67.57
68889;BME280;55930;47.412;8.790;2022-08-18T14:03:27;94195.06;;;20.70;69.60
68889;BME280;55930;47.412;8.790;2022-08-18T14:05:53;94188.41;;;20.63;69.08
68889;BME280;55930;47.412;8.790;2022-08-18T14:08:23;94198.91;;;20.46;70.15
68889;BME280;55930;47.412;8.790;2022-08-18T14:10:53;94185.81;;;20.43;72.14
68889;BME280;55930;47.412;8.790;2022-08-18T14:13:19;94181.66;;;20.42;70.80
68889;BME280;55930;47.412;8.790;2022-08-18T14:15:45;94187.38;;;20.38;72.31
68889;BME280;55930;47.412;8.790;2022-08-18T14:18:11;94197.16;;;20.49;72.35
68889;BME280;55930;47.412;8.790;2022-08-18T14:20:37;94200.66;;;20.36;73.16
68889;BME280;55930;47.412;8.790;2022-08-18T14:23:21;94199.81;;;20.20;74.55
68889;BME280;55930;47.412;8.790;2022-08-18T14:26:05;94202.19;;;20.24;75.46
68889;BME280;55930;47.412;8.790;2022-08-18T14:28:51;94202.75;;;20.30;73.21
68889;BME280;55930;47.412;8.790;2022-08-18T14:31:17;94201.56;;;20.10;75.00
68889;BME280;55930;47.412;8.790;2022-08-18T14:33:44;94201.84;;;20.27;74.94
68889;BME280;55930;47.412;8.790;2022-08-18T14:36:11;94199.53;;;20.32;75.20
68889;BME280;55930;47.412;8.790;2022-08-18T14:38:37;94200.69;;;20.15;76.43
68889;BME280;55930;47.412;8.790;2022-08-18T14:41:05;94199.97;;;20.15;76.11
68889;BME280;55930;47.412;8.790;2022-08-18T14:43:30;94204.50;;;20.20;76.20
68889;BME280;55930;47.412;8.790;2022-08-18T14:45:58;94202.69;;;19.86;78.20
68889;BME280;55930;47.412;8.790;2022-08-18T14:48:23;94214.03;;;19.93;80.50
68889;BME280;55930;47.412;8.790;2022-08-18T14:50:54;94212.78;;;19.73;79.63
68889;BME280;55930;47.412;8.790;2022-08-18T14:53:24;94214.75;;;19.72;80.79
68889;BME280;55930;47.412;8.790;2022-08-18T14:55:50;94215.41;;;19.65;84.04
68889;BME280;55930;47.412;8.790;2022-08-18T14:58:25;94220.25;;;19.46;85.30
68889;BME280;55930;47.412;8.790;2022-08-18T15:00:58;94216.16;;;19.32;84.94
68889;BME280;55930;47.412;8.790;2022-08-18T15:03:25;94225.28;;;19.29;86.71
68889;BME280;55930;47.412;8.790;2022-08-18T15:05:52;94235.53;;;18.96;88.73
68889;BME280;55930;47.412;8.790;2022-08-18T15:08:19;94237.94;;;19.21;88.14
68889;BME280;55930;47.412;8.790;2022-08-18T15:10:44;94235.19;;;19.13;90.28
68889;BME280;55930;47.412;8.790;2022-08-18T15:13:10;94239.25;;;19.27;90.64
68889;BME280;55930;47.412;8.790;2022-08-18T15:15:36;94234.75;;;19.09;92.08
68889;BME280;55930;47.412;8.790;2022-08-18T15:18:02;94238.06;;;19.15;91.81
68889;BME280;55930;47.412;8.790;2022-08-18T15:20:30;94238.66;;;18.87;93.57
68889;BME280;55930;47.412;8.790;2022-08-18T15:23:00;94236.38;;;18.91;94.35
68889;BME280;55930;47.412;8.790;2022-08-18T15:25:46;94245.69;;;18.77;95.13
68889;BME280;55930;47.412;8.790;2022-08-18T15:28:17;94254.00;;;18.66;95.69
68889;BME280;55930;47.412;8.790;2022-08-18T15:30:47;94252.53;;;18.65;97.51
68889;BME280;55930;47.412;8.790;2022-08-18T15:33:13;94262.25;;;18.68;99.32